ADDS METAR Data INFO
IDs: Format: Raw Decoded Include TAF

Data at: 0354 UTC 19 Feb 2018

KSUX 190352Z AUTO 33014KT 10SM OVC043 M01/M02 A2969 RMK AO2 SLP062 T10061022 $
KSUX 190252Z 33017KT 10SM SCT044 00/M02 A2966 RMK AO2 SLP052 T00001022 51028 $
KSUX 190152Z 32018KT 10SM CLR 01/M01 A2964 RMK AO2 SLP047 T00111011 $
KSUX 190052Z 33017KT 10SM CLR 03/00 A2962 RMK AO2 SLP038 T00280000 $
KSUX 182352Z 36004KT 10SM CLR 05/01 A2958 RMK AO2 SLP024 T00500006 10089 20050 53001 $
KSUX 182252Z 20004KT 10SM CLR 07/01 A2956 RMK AO2 SLP018 T00720011 $
KSUX 182152Z 19005KT 10SM CLR 09/02 A2955 RMK AO2 SLP016 T00890022 $
KSUX 182052Z 15005KT 10SM CLR 07/01 A2957 RMK AO2 SLP024 T00720011 56022 $
KSUX 181952Z 21013KT 10SM CLR 07/M01 A2959 RMK AO2 PK WND 19033/1905 SLP031 T00671006 $
KSUX 181852Z 19019G25KT 10SM CLR 07/M01 A2959 RMK AO2 PK WND 15026/1756 SLP031 T00671006 $
KSUX 181752Z 18015G26KT 10SM CLR 06/M01 A2964 RMK AO2 PK WND 19038/1656 SLP048 60000 T00611011 10067 21011 56020 $
KSUX 181652Z AUTO 18029G37KT 10SM CLR 06/M02 A2965 RMK AO2 PK WND 19039/1634 SLP052 T00561022 $
KSUX 181552Z 18025G36KT 10SM CLR 05/M03 A2968 RMK AO2 PK WND 18040/1511 RAB13E22 SLP060 P0000 T00501028 $
KSUX 181452Z 18026G36KT 10SM CLR 05/M03 A2970 RMK AO2 PK WND 17036/1448 SLP068 T00501033 56038 $
KSUX 181352Z 14018G24KT 10SM CLR 01/M05 A2972 RMK AO2 PK WND 15031/1254 SLP076 T00111050 $
KSUX 181252Z 16021G27KT 10SM CLR 01/M05 A2975 RMK AO2 PK WND 16029/1239 SLP084 T00061050 $
KSUX 181152Z 16020G26KT 10SM CLR M01/M04 A2982 RMK AO2 PK WND 16026/1148 SLP108 70007 I6000 T10111044 11011 21072 56043 $
KSUX 181052Z AUTO 15012KT 10SM CLR M03/M05 A2985 RMK AO2 SLP120 T10281050 $
KSUX 180952Z AUTO 13010KT 10SM CLR M04/M06 A2989 RMK AO2 PRESFR SLP133 T10441056 $
KSUX 180852Z AUTO 12010KT 10SM CLR M07/M07 A2995 RMK AO2 SLP154 I1000 I3000 T10671072 58033 $
KSUX 180752Z AUTO 14009KT 10SM CLR M05/M06 A2998 RMK AO2 SLP164 I1000 T10501056 $
KSUX 180652Z AUTO 14009KT 10SM CLR M05/M06 A3002 RMK AO2 SLP180 I1000 T10501056 $
KSUX 180552Z AUTO 11007KT 10SM CLR M06/M07 A3005 RMK AO2 SLP188 I1000 I6000 T10611067 10006 21078 400221078 58020 $
KSUX 180452Z AUTO 13004KT 10SM CLR M07/M07 A3008 RMK AO2 SLP204 I1000 T10721072 $
KSUX 180352Z AUTO 12006KT 10SM CLR M06/M07 A3009 RMK AO2 SLP207 I1000 T10611067 $
KSUX 180252Z 00000KT 10SM CLR M05/M06 A3011 RMK AO2 SLP212 I1000 I3000 T10501056 58005 $
KSUX 180152Z 00000KT 10SM CLR M03/M04 A3012 RMK AO2 SLP216 T10281044 $
KSUX 180052Z 31004KT 10SM FEW026 M02/M04 A3013 RMK AO2 SLP218 T10171044 $
KSUX 172352Z 31006KT 10SM SCT024 00/M03 A3012 RMK AO2 SLP214 60000 T00001028 10022 21006 53021 $
KSUX 172252Z 33007KT 10SM SCT024 02/M02 A3010 RMK AO2 SLP205 T00171022 $
KSUX 172152Z 32009KT 10SM CLR 02/M03 A3008 RMK AO2 SLP197 T00171028 $
KSUX 172052Z 32011KT 10SM CLR 02/M03 A3006 RMK AO2 SLP190 60000 T00171033 53017 $
KSUX 172032Z 32011KT 10SM SCT028 02/M03 A3005 RMK AO2 T00171028 $
KSUX 172016Z 32010KT 10SM BKN029 02/M03 A3004 RMK AO2 T00171028 $
KSUX 171952Z 32015KT 10SM BKN034 02/M03 A3003 RMK AO2 SLP182 T00171033 $
KSUX 171852Z 32012KT 10SM CLR 02/M03 A3002 RMK AO2 RAB42E47 SLP177 P0000 T00171033 $
KSUX 171752Z 30009KT 10SM FEW070 01/M04 A3001 RMK AO2 SLP174 60007 T00111044 10011 21061 53021 $
KSUX 171652Z 30006KT 10SM CLR M02/M05 A2998 RMK AO2 SLP169 T10171050 $